sensor_id;sensor_type;location;lat;lon;timestamp;P1;durP1;ratioP1;P2;durP2;ratioP2
58615;SDS011;44385;51.992;4.206;2024-02-23T00:02:13;12.73;;;2.22;;
58615;SDS011;44385;51.992;4.206;2024-02-23T00:04:39;10.32;;;2.55;;
58615;SDS011;44385;51.992;4.206;2024-02-23T00:07:07;12.40;;;2.10;;
58615;SDS011;44385;51.992;4.206;2024-02-23T00:09:33;7.38;;;1.98;;
58615;SDS011;44385;51.992;4.206;2024-02-23T00:12:01;4.90;;;1.52;;
58615;SDS011;44385;51.992;4.206;2024-02-23T00:14:27;7.55;;;1.63;;
58615;SDS011;44385;51.992;4.206;2024-02-23T00:16:56;10.93;;;2.17;;
58615;SDS011;44385;51.992;4.206;2024-02-23T00:19:22;14.68;;;3.15;;
58615;SDS011;44385;51.992;4.206;2024-02-23T00:21:49;10.48;;;1.90;;
58615;SDS011;44385;51.992;4.206;2024-02-23T00:24:16;6.47;;;1.70;;
58615;SDS011;44385;51.992;4.206;2024-02-23T00:26:43;8.82;;;2.05;;
58615;SDS011;44385;51.992;4.206;2024-02-23T00:29:11;8.48;;;2.55;;
58615;SDS011;44385;51.992;4.206;2024-02-23T00:31:37;12.27;;;2.38;;
58615;SDS011;44385;51.992;4.206;2024-02-23T00:34:05;10.93;;;2.97;;
58615;SDS011;44385;51.992;4.206;2024-02-23T00:36:35;8.70;;;1.92;;
58615;SDS011;44385;51.992;4.206;2024-02-23T00:39:02;9.68;;;2.38;;
58615;SDS011;44385;51.992;4.206;2024-02-23T00:41:28;6.38;;;1.75;;
58615;SDS011;44385;51.992;4.206;2024-02-23T00:43:55;15.63;;;3.00;;
58615;SDS011;44385;51.992;4.206;2024-02-23T00:46:22;15.02;;;2.80;;
58615;SDS011;44385;51.992;4.206;2024-02-23T00:48:49;5.70;;;2.05;;
58615;SDS011;44385;51.992;4.206;2024-02-23T00:51:15;7.13;;;1.67;;
58615;SDS011;44385;51.992;4.206;2024-02-23T00:53:42;6.95;;;2.05;;
58615;SDS011;44385;51.992;4.206;2024-02-23T00:56:09;7.88;;;1.65;;
58615;SDS011;44385;51.992;4.206;2024-02-23T00:58:35;9.73;;;2.20;;
58615;SDS011;44385;51.992;4.206;2024-02-23T01:01:02;9.18;;;1.75;;
58615;SDS011;44385;51.992;4.206;2024-02-23T01:03:29;5.53;;;1.80;;
58615;SDS011;44385;51.992;4.206;2024-02-23T01:05:56;14.25;;;2.67;;
58615;SDS011;44385;51.992;4.206;2024-02-23T01:08:22;9.65;;;1.70;;
58615;SDS011;44385;51.992;4.206;2024-02-23T01:10:49;9.10;;;2.17;;
58615;SDS011;44385;51.992;4.206;2024-02-23T01:13:15;7.70;;;2.95;;
58615;SDS011;44385;51.992;4.206;2024-02-23T01:15:42;15.32;;;3.53;;
58615;SDS011;44385;51.992;4.206;2024-02-23T01:18:08;9.45;;;2.03;;
58615;SDS011;44385;51.992;4.206;2024-02-23T01:20:36;15.95;;;2.60;;
58615;SDS011;44385;51.992;4.206;2024-02-23T01:23:02;5.78;;;1.83;;
58615;SDS011;44385;51.992;4.206;2024-02-23T01:25:29;8.27;;;1.60;;
58615;SDS011;44385;51.992;4.206;2024-02-23T01:27:56;6.00;;;1.20;;
58615;SDS011;44385;51.992;4.206;2024-02-23T01:30:22;11.30;;;2.50;;
58615;SDS011;44385;51.992;4.206;2024-02-23T01:32:49;10.50;;;1.95;;
58615;SDS011;44385;51.992;4.206;2024-02-23T01:35:15;9.48;;;1.80;;
58615;SDS011;44385;51.992;4.206;2024-02-23T01:37:44;11.32;;;2.33;;
58615;SDS011;44385;51.992;4.206;2024-02-23T01:40:10;9.25;;;1.85;;
58615;SDS011;44385;51.992;4.206;2024-02-23T01:42:37;9.40;;;1.92;;
58615;SDS011;44385;51.992;4.206;2024-02-23T01:45:04;6.10;;;1.40;;
58615;SDS011;44385;51.992;4.206;2024-02-23T01:47:31;5.75;;;1.50;;
58615;SDS011;44385;51.992;4.206;2024-02-23T01:49:57;9.70;;;2.03;;
58615;SDS011;44385;51.992;4.206;2024-02-23T01:52:25;9.75;;;1.80;;
58615;SDS011;44385;51.992;4.206;2024-02-23T01:54:53;12.15;;;2.35;;
58615;SDS011;44385;51.992;4.206;2024-02-23T01:57:20;8.55;;;1.90;;
58615;SDS011;44385;51.992;4.206;2024-02-23T01:59:47;9.98;;;2.50;;
58615;SDS011;44385;51.992;4.206;2024-02-23T02:02:14;7.30;;;1.90;;
58615;SDS011;44385;51.992;4.206;2024-02-23T02:04:40;7.18;;;1.83;;
58615;SDS011;44385;51.992;4.206;2024-02-23T02:07:06;14.15;;;2.38;;
58615;SDS011;44385;51.992;4.206;2024-02-23T02:09:33;6.70;;;1.73;;
58615;SDS011;44385;51.992;4.206;2024-02-23T02:12:01;8.50;;;1.98;;
58615;SDS011;44385;51.992;4.206;2024-02-23T02:14:27;6.80;;;1.65;;
58615;SDS011;44385;51.992;4.206;2024-02-23T02:16:56;6.20;;;1.80;;
58615;SDS011;44385;51.992;4.206;2024-02-23T02:19:23;3.67;;;1.70;;
58615;SDS011;44385;51.992;4.206;2024-02-23T02:21:49;5.53;;;1.98;;
58615;SDS011;44385;51.992;4.206;2024-02-23T02:24:15;10.40;;;1.92;;
58615;SDS011;44385;51.992;4.206;2024-02-23T02:26:42;5.22;;;1.20;;
58615;SDS011;44385;51.992;4.206;2024-02-23T02:29:11;6.78;;;2.17;;
58615;SDS011;44385;51.992;4.206;2024-02-23T02:31:39;9.38;;;2.55;;
58615;SDS011;44385;51.992;4.206;2024-02-23T02:34:06;8.32;;;1.70;;
58615;SDS011;44385;51.992;4.206;2024-02-23T02:36:33;9.38;;;1.65;;
58615;SDS011;44385;51.992;4.206;2024-02-23T02:39:00;13.48;;;2.13;;
58615;SDS011;44385;51.992;4.206;2024-02-23T02:41:27;8.38;;;1.80;;
58615;SDS011;44385;51.992;4.206;2024-02-23T02:43:54;11.82;;;1.15;;
58615;SDS011;44385;51.992;4.206;2024-02-23T02:46:22;9.18;;;2.05;;
58615;SDS011;44385;51.992;4.206;2024-02-23T02:48:49;14.10;;;2.58;;
58615;SDS011;44385;51.992;4.206;2024-02-23T02:51:15;10.93;;;1.88;;
58615;SDS011;44385;51.992;4.206;2024-02-23T02:53:41;14.23;;;2.15;;
58615;SDS011;44385;51.992;4.206;2024-02-23T02:56:08;11.00;;;1.67;;
58615;SDS011;44385;51.992;4.206;2024-02-23T02:58:34;8.38;;;1.80;;
58615;SDS011;44385;51.992;4.206;2024-02-23T03:01:01;4.68;;;1.40;;
58615;SDS011;44385;51.992;4.206;2024-02-23T03:03:29;6.70;;;1.83;;
58615;SDS011;44385;51.992;4.206;2024-02-23T03:05:55;8.50;;;1.45;;
58615;SDS011;44385;51.992;4.206;2024-02-23T03:08:21;7.93;;;1.33;;
58615;SDS011;44385;51.992;4.206;2024-02-23T03:10:48;9.32;;;2.00;;
58615;SDS011;44385;51.992;4.206;2024-02-23T03:13:14;13.35;;;2.03;;
58615;SDS011;44385;51.992;4.206;2024-02-23T03:15:41;10.75;;;2.13;;
58615;SDS011;44385;51.992;4.206;2024-02-23T03:18:08;11.38;;;2.13;;
58615;SDS011;44385;51.992;4.206;2024-02-23T03:20:36;11.07;;;2.17;;
58615;SDS011;44385;51.992;4.206;2024-02-23T03:23:03;8.82;;;1.90;;
58615;SDS011;44385;51.992;4.206;2024-02-23T03:25:30;9.50;;;2.13;;
58615;SDS011;44385;51.992;4.206;2024-02-23T03:27:56;6.57;;;1.48;;
58615;SDS011;44385;51.992;4.206;2024-02-23T03:30:23;9.38;;;2.60;;
58615;SDS011;44385;51.992;4.206;2024-02-23T03:32:49;8.70;;;2.08;;
58615;SDS011;44385;51.992;4.206;2024-02-23T03:35:15;8.30;;;1.92;;
58615;SDS011;44385;51.992;4.206;2024-02-23T03:37:46;10.75;;;1.73;;
58615;SDS011;44385;51.992;4.206;2024-02-23T03:40:13;8.23;;;1.95;;
58615;SDS011;44385;51.992;4.206;2024-02-23T03:42:39;8.43;;;2.05;;
58615;SDS011;44385;51.992;4.206;2024-02-23T03:45:06;8.27;;;2.08;;
58615;SDS011;44385;51.992;4.206;2024-02-23T03:47:32;12.35;;;2.17;;
58615;SDS011;44385;51.992;4.206;2024-02-23T03:49:59;11.10;;;1.95;;
58615;SDS011;44385;51.992;4.206;2024-02-23T03:52:25;8.88;;;2.53;;
58615;SDS011;44385;51.992;4.206;2024-02-23T03:54:53;10.15;;;1.85;;
58615;SDS011;44385;51.992;4.206;2024-02-23T03:57:20;8.63;;;2.33;;
58615;SDS011;44385;51.992;4.206;2024-02-23T03:59:51;10.73;;;2.50;;
58615;SDS011;44385;51.992;4.206;2024-02-23T04:02:17;14.57;;;3.78;;
58615;SDS011;44385;51.992;4.206;2024-02-23T04:04:44;9.07;;;2.03;;
58615;SDS011;44385;51.992;4.206;2024-02-23T04:07:10;12.45;;;2.67;;
58615;SDS011;44385;51.992;4.206;2024-02-23T04:09:37;13.43;;;2.50;;
58615;SDS011;44385;51.992;4.206;2024-02-23T04:12:05;13.43;;;2.45;;
58615;SDS011;44385;51.992;4.206;2024-02-23T04:14:32;10.38;;;2.28;;
58615;SDS011;44385;51.992;4.206;2024-02-23T04:17:01;10.32;;;2.25;;
58615;SDS011;44385;51.992;4.206;2024-02-23T04:19:27;12.00;;;2.13;;
58615;SDS011;44385;51.992;4.206;2024-02-23T04:21:54;14.77;;;1.90;;
58615;SDS011;44385;51.992;4.206;2024-02-23T04:24:20;13.73;;;2.83;;
58615;SDS011;44385;51.992;4.206;2024-02-23T04:26:47;8.68;;;1.95;;
58615;SDS011;44385;51.992;4.206;2024-02-23T04:29:15;7.63;;;1.90;;
58615;SDS011;44385;51.992;4.206;2024-02-23T04:31:42;10.57;;;1.83;;
58615;SDS011;44385;51.992;4.206;2024-02-23T04:34:08;6.75;;;1.88;;
58615;SDS011;44385;51.992;4.206;2024-02-23T04:36:34;9.75;;;1.95;;
58615;SDS011;44385;51.992;4.206;2024-02-23T04:39:01;6.78;;;1.48;;
58615;SDS011;44385;51.992;4.206;2024-02-23T04:41:28;5.20;;;0.85;;
58615;SDS011;44385;51.992;4.206;2024-02-23T04:43:54;4.50;;;0.68;;
58615;SDS011;44385;51.992;4.206;2024-02-23T04:46:26;3.88;;;1.10;;
58615;SDS011;44385;51.992;4.206;2024-02-23T04:48:52;2.78;;;0.90;;
58615;SDS011;44385;51.992;4.206;2024-02-23T04:51:20;5.32;;;0.95;;
58615;SDS011;44385;51.992;4.206;2024-02-23T04:53:48;4.80;;;0.57;;
58615;SDS011;44385;51.992;4.206;2024-02-23T04:56:14;6.30;;;0.80;;
58615;SDS011;44385;51.992;4.206;2024-02-23T04:58:41;4.45;;;1.00;;
58615;SDS011;44385;51.992;4.206;2024-02-23T05:01:07;4.03;;;0.80;;
58615;SDS011;44385;51.992;4.206;2024-02-23T05:03:35;5.90;;;1.08;;
58615;SDS011;44385;51.992;4.206;2024-02-23T05:06:02;7.82;;;1.58;;
58615;SDS011;44385;51.992;4.206;2024-02-23T05:08:29;8.55;;;1.88;;
58615;SDS011;44385;51.992;4.206;2024-02-23T05:10:55;6.35;;;1.40;;
58615;SDS011;44385;51.992;4.206;2024-02-23T05:13:22;6.18;;;1.38;;
58615;SDS011;44385;51.992;4.206;2024-02-23T05:15:49;14.88;;;2.08;;
58615;SDS011;44385;51.992;4.206;2024-02-23T05:18:15;6.43;;;1.40;;
58615;SDS011;44385;51.992;4.206;2024-02-23T05:20:43;9.55;;;2.90;;
58615;SDS011;44385;51.992;4.206;2024-02-23T05:23:09;8.80;;;2.05;;
58615;SDS011;44385;51.992;4.206;2024-02-23T05:25:36;7.10;;;1.88;;
58615;SDS011;44385;51.992;4.206;2024-02-23T05:28:03;7.45;;;2.38;;
58615;SDS011;44385;51.992;4.206;2024-02-23T05:30:30;7.43;;;2.45;;
58615;SDS011;44385;51.992;4.206;2024-02-23T05:32:56;7.40;;;2.20;;
58615;SDS011;44385;51.992;4.206;2024-02-23T05:35:23;11.07;;;2.20;;
58615;SDS011;44385;51.992;4.206;2024-02-23T05:37:51;7.85;;;2.13;;
58615;SDS011;44385;51.992;4.206;2024-02-23T05:40:17;6.55;;;2.35;;
58615;SDS011;44385;51.992;4.206;2024-02-23T05:42:44;7.53;;;2.50;;
58615;SDS011;44385;51.992;4.206;2024-02-23T05:45:10;9.70;;;2.83;;
58615;SDS011;44385;51.992;4.206;2024-02-23T05:47:36;4.97;;;2.50;;
58615;SDS011;44385;51.992;4.206;2024-02-23T05:50:03;4.22;;;2.35;;
58615;SDS011;44385;51.992;4.206;2024-02-23T05:52:33;8.55;;;2.80;;
58615;SDS011;44385;51.992;4.206;2024-02-23T05:55:02;8.23;;;3.40;;
58615;SDS011;44385;51.992;4.206;2024-02-23T05:57:28;8.63;;;2.83;;
58615;SDS011;44385;51.992;4.206;2024-02-23T05:59:55;7.15;;;2.47;;
58615;SDS011;44385;51.992;4.206;2024-02-23T06:02:21;9.32;;;3.08;;
58615;SDS011;44385;51.992;4.206;2024-02-23T06:04:48;9.38;;;3.35;;
58615;SDS011;44385;51.992;4.206;2024-02-23T06:07:14;8.70;;;2.92;;
58615;SDS011;44385;51.992;4.206;2024-02-23T06:09:41;10.60;;;3.00;;
58615;SDS011;44385;51.992;4.206;2024-02-23T06:12:09;8.38;;;2.88;;
58615;SDS011;44385;51.992;4.206;2024-02-23T06:14:36;10.93;;;3.00;;
58615;SDS011;44385;51.992;4.206;2024-02-23T06:17:02;5.78;;;2.78;;
58615;SDS011;44385;51.992;4.206;2024-02-23T06:19:31;10.38;;;2.50;;
58615;SDS011;44385;51.992;4.206;2024-02-23T06:21:58;5.95;;;3.60;;
58615;SDS011;44385;51.992;4.206;2024-02-23T06:24:24;4.75;;;2.10;;
58615;SDS011;44385;51.992;4.206;2024-02-23T06:26:51;6.32;;;2.40;;
58615;SDS011;44385;51.992;4.206;2024-02-23T06:29:19;7.13;;;2.25;;
58615;SDS011;44385;51.992;4.206;2024-02-23T06:31:45;9.55;;;2.70;;
58615;SDS011;44385;51.992;4.206;2024-02-23T06:34:14;8.25;;;2.63;;
58615;SDS011;44385;51.992;4.206;2024-02-23T06:36:40;9.38;;;2.40;;
58615;SDS011;44385;51.992;4.206;2024-02-23T06:39:07;7.40;;;2.70;;
58615;SDS011;44385;51.992;4.206;2024-02-23T06:41:33;7.30;;;2.28;;
58615;SDS011;44385;51.992;4.206;2024-02-23T06:43:59;9.80;;;2.80;;
58615;SDS011;44385;51.992;4.206;2024-02-23T06:46:27;6.03;;;2.70;;
58615;SDS011;44385;51.992;4.206;2024-02-23T06:48:54;8.48;;;2.08;;
58615;SDS011;44385;51.992;4.206;2024-02-23T06:51:21;5.80;;;2.28;;
58615;SDS011;44385;51.992;4.206;2024-02-23T06:53:47;11.20;;;2.95;;
58615;SDS011;44385;51.992;4.206;2024-02-23T06:56:13;7.72;;;2.80;;
58615;SDS011;44385;51.992;4.206;2024-02-23T06:58:40;11.23;;;2.65;;
58615;SDS011;44385;51.992;4.206;2024-02-23T07:01:06;8.90;;;2.22;;
58615;SDS011;44385;51.992;4.206;2024-02-23T07:03:37;6.60;;;2.47;;
58615;SDS011;44385;51.992;4.206;2024-02-23T07:06:05;11.35;;;2.63;;
58615;SDS011;44385;51.992;4.206;2024-02-23T07:08:31;8.68;;;2.53;;
58615;SDS011;44385;51.992;4.206;2024-02-23T07:10:58;7.97;;;2.22;;
58615;SDS011;44385;51.992;4.206;2024-02-23T07:13:25;9.25;;;2.25;;
58615;SDS011;44385;51.992;4.206;2024-02-23T07:15:51;7.05;;;2.15;;
58615;SDS011;44385;51.992;4.206;2024-02-23T07:18:18;7.15;;;1.75;;
58615;SDS011;44385;51.992;4.206;2024-02-23T07:20:46;6.45;;;2.00;;
58615;SDS011;44385;51.992;4.206;2024-02-23T07:23:12;7.35;;;2.10;;
58615;SDS011;44385;51.992;4.206;2024-02-23T07:25:41;14.50;;;2.57;;
58615;SDS011;44385;51.992;4.206;2024-02-23T07:28:07;12.63;;;2.60;;
58615;SDS011;44385;51.992;4.206;2024-02-23T07:30:34;8.27;;;2.15;;
58615;SDS011;44385;51.992;4.206;2024-02-23T07:33:01;9.80;;;2.92;;
58615;SDS011;44385;51.992;4.206;2024-02-23T07:35:27;8.90;;;2.28;;
58615;SDS011;44385;51.992;4.206;2024-02-23T07:37:56;9.85;;;2.53;;
58615;SDS011;44385;51.992;4.206;2024-02-23T07:40:22;8.98;;;2.45;;
58615;SDS011;44385;51.992;4.206;2024-02-23T07:42:49;13.43;;;2.95;;
58615;SDS011;44385;51.992;4.206;2024-02-23T07:45:15;13.07;;;3.15;;
58615;SDS011;44385;51.992;4.206;2024-02-23T07:47:42;10.23;;;2.40;;
58615;SDS011;44385;51.992;4.206;2024-02-23T07:50:08;10.25;;;2.70;;
58615;SDS011;44385;51.992;4.206;2024-02-23T07:52:35;9.23;;;2.85;;
58615;SDS011;44385;51.992;4.206;2024-02-23T07:55:03;9.48;;;3.28;;
58615;SDS011;44385;51.992;4.206;2024-02-23T07:57:30;9.80;;;2.95;;
58615;SDS011;44385;51.992;4.206;2024-02-23T07:59:57;14.60;;;3.20;;
58615;SDS011;44385;51.992;4.206;2024-02-23T08:02:23;18.55;;;3.10;;
58615;SDS011;44385;51.992;4.206;2024-02-23T08:04:49;10.30;;;2.45;;
58615;SDS011;44385;51.992;4.206;2024-02-23T08:07:17;15.20;;;2.85;;
58615;SDS011;44385;51.992;4.206;2024-02-23T08:09:43;12.95;;;3.05;;
58615;SDS011;44385;51.992;4.206;2024-02-23T08:12:11;10.75;;;3.28;;
58615;SDS011;44385;51.992;4.206;2024-02-23T08:14:38;12.30;;;2.73;;
58615;SDS011;44385;51.992;4.206;2024-02-23T08:17:06;10.52;;;2.72;;
58615;SDS011;44385;51.992;4.206;2024-02-23T08:19:32;7.70;;;2.10;;
58615;SDS011;44385;51.992;4.206;2024-02-23T08:21:59;4.88;;;1.95;;
58615;SDS011;44385;51.992;4.206;2024-02-23T08:24:25;6.57;;;2.33;;
58615;SDS011;44385;51.992;4.206;2024-02-23T08:26:52;11.45;;;2.40;;
58615;SDS011;44385;51.992;4.206;2024-02-23T08:29:20;7.80;;;1.92;;
58615;SDS011;44385;51.992;4.206;2024-02-23T08:31:46;8.80;;;2.72;;
58615;SDS011;44385;51.992;4.206;2024-02-23T08:34:13;7.00;;;2.65;;
58615;SDS011;44385;51.992;4.206;2024-02-23T08:36:39;9.95;;;2.53;;
58615;SDS011;44385;51.992;4.206;2024-02-23T08:39:05;11.55;;;2.33;;
58615;SDS011;44385;51.992;4.206;2024-02-23T08:41:34;7.43;;;2.22;;
58615;SDS011;44385;51.992;4.206;2024-02-23T08:44:00;9.43;;;2.53;;
58615;SDS011;44385;51.992;4.206;2024-02-23T08:46:28;5.60;;;2.13;;
58615;SDS011;44385;51.992;4.206;2024-02-23T08:48:54;7.65;;;2.13;;
58615;SDS011;44385;51.992;4.206;2024-02-23T08:51:21;9.57;;;2.13;;
58615;SDS011;44385;51.992;4.206;2024-02-23T08:53:47;13.60;;;2.88;;
58615;SDS011;44385;51.992;4.206;2024-02-23T08:56:14;5.25;;;2.08;;
58615;SDS011;44385;51.992;4.206;2024-02-23T08:58:41;6.63;;;1.52;;
58615;SDS011;44385;51.992;4.206;2024-02-23T09:01:07;9.73;;;2.38;;
58615;SDS011;44385;51.992;4.206;2024-02-23T09:03:36;10.80;;;3.00;;
58615;SDS011;44385;51.992;4.206;2024-02-23T09:06:02;7.35;;;2.10;;
58615;SDS011;44385;51.992;4.206;2024-02-23T09:08:29;9.05;;;2.10;;
58615;SDS011;44385;51.992;4.206;2024-02-23T09:10:55;8.10;;;2.53;;
58615;SDS011;44385;51.992;4.206;2024-02-23T09:13:22;8.48;;;1.73;;
58615;SDS011;44385;51.992;4.206;2024-02-23T09:15:48;6.65;;;2.00;;
58615;SDS011;44385;51.992;4.206;2024-02-23T09:18:14;11.32;;;1.90;;
58615;SDS011;44385;51.992;4.206;2024-02-23T09:20:42;6.95;;;2.00;;
58615;SDS011;44385;51.992;4.206;2024-02-23T09:23:09;5.45;;;2.13;;
58615;SDS011;44385;51.992;4.206;2024-02-23T09:25:37;8.70;;;2.17;;
58615;SDS011;44385;51.992;4.206;2024-02-23T09:28:03;5.07;;;1.95;;
58615;SDS011;44385;51.992;4.206;2024-02-23T09:30:30;11.30;;;3.10;;
58615;SDS011;44385;51.992;4.206;2024-02-23T09:32:56;6.65;;;1.80;;
58615;SDS011;44385;51.992;4.206;2024-02-23T09:35:23;6.68;;;2.00;;
58615;SDS011;44385;51.992;4.206;2024-02-23T09:37:51;7.32;;;2.40;;
58615;SDS011;44385;51.992;4.206;2024-02-23T09:40:17;7.78;;;2.00;;
58615;SDS011;44385;51.992;4.206;2024-02-23T09:42:44;9.77;;;2.22;;
58615;SDS011;44385;51.992;4.206;2024-02-23T09:45:16;6.35;;;1.95;;
58615;SDS011;44385;51.992;4.206;2024-02-23T09:47:43;6.65;;;1.63;;
58615;SDS011;44385;51.992;4.206;2024-02-23T09:50:10;5.10;;;1.80;;
58615;SDS011;44385;51.992;4.206;2024-02-23T09:52:38;4.47;;;1.38;;
58615;SDS011;44385;51.992;4.206;2024-02-23T09:55:06;7.05;;;1.67;;
58615;SDS011;44385;51.992;4.206;2024-02-23T09:57:32;7.53;;;1.60;;
58615;SDS011;44385;51.992;4.206;2024-02-23T09:59:59;5.22;;;1.70;;
58615;SDS011;44385;51.992;4.206;2024-02-23T10:02:25;8.18;;;2.00;;
58615;SDS011;44385;51.992;4.206;2024-02-23T10:04:53;4.93;;;1.90;;
58615;SDS011;44385;51.992;4.206;2024-02-23T10:07:20;4.20;;;1.73;;
58615;SDS011;44385;51.992;4.206;2024-02-23T10:09:47;6.47;;;1.58;;
58615;SDS011;44385;51.992;4.206;2024-02-23T10:12:15;8.48;;;2.30;;
58615;SDS011;44385;51.992;4.206;2024-02-23T10:14:43;7.68;;;1.80;;
58615;SDS011;44385;51.992;4.206;2024-02-23T10:17:09;7.22;;;1.67;;
58615;SDS011;44385;51.992;4.206;2024-02-23T10:19:35;6.32;;;1.92;;
58615;SDS011;44385;51.992;4.206;2024-02-23T10:22:03;5.93;;;1.83;;
58615;SDS011;44385;51.992;4.206;2024-02-23T10:24:29;7.50;;;2.10;;
58615;SDS011;44385;51.992;4.206;2024-02-23T10:26:56;7.28;;;2.05;;
58615;SDS011;44385;51.992;4.206;2024-02-23T10:29:25;7.40;;;1.65;;
58615;SDS011;44385;51.992;4.206;2024-02-23T10:31:51;5.80;;;1.70;;
58615;SDS011;44385;51.992;4.206;2024-02-23T10:34:18;5.32;;;1.55;;
58615;SDS011;44385;51.992;4.206;2024-02-23T10:36:45;2.88;;;1.15;;
58615;SDS011;44385;51.992;4.206;2024-02-23T10:39:14;6.95;;;1.50;;
58615;SDS011;44385;51.992;4.206;2024-02-23T10:41:43;4.40;;;1.40;;
58615;SDS011;44385;51.992;4.206;2024-02-23T10:44:10;3.00;;;1.27;;
58615;SDS011;44385;51.992;4.206;2024-02-23T10:46:38;4.55;;;1.50;;
58615;SDS011;44385;51.992;4.206;2024-02-23T10:49:06;4.83;;;1.33;;
58615;SDS011;44385;51.992;4.206;2024-02-23T10:51:33;3.83;;;1.70;;
58615;SDS011;44385;51.992;4.206;2024-02-23T10:54:00;3.58;;;1.30;;
58615;SDS011;44385;51.992;4.206;2024-02-23T10:56:26;4.72;;;1.63;;
58615;SDS011;44385;51.992;4.206;2024-02-23T10:58:53;5.78;;;1.70;;
58615;SDS011;44385;51.992;4.206;2024-02-23T11:01:20;6.75;;;1.77;;
58615;SDS011;44385;51.992;4.206;2024-02-23T11:03:49;3.13;;;1.48;;
58615;SDS011;44385;51.992;4.206;2024-02-23T11:06:16;4.70;;;1.67;;
58615;SDS011;44385;51.992;4.206;2024-02-23T11:11:12;4.25;;;1.63;;
58615;SDS011;44385;51.992;4.206;2024-02-23T11:13:39;5.40;;;1.67;;
58615;SDS011;44385;51.992;4.206;2024-02-23T11:16:08;2.60;;;1.20;;
58615;SDS011;44385;51.992;4.206;2024-02-23T11:18:35;4.23;;;1.30;;
58615;SDS011;44385;51.992;4.206;2024-02-23T11:21:04;4.00;;;1.45;;
58615;SDS011;44385;51.992;4.206;2024-02-23T11:23:38;6.17;;;1.63;;
58615;SDS011;44385;51.992;4.206;2024-02-23T11:26:05;6.28;;;1.75;;
58615;SDS011;44385;51.992;4.206;2024-02-23T11:28:33;4.95;;;1.40;;
58615;SDS011;44385;51.992;4.206;2024-02-23T11:31:10;4.18;;;1.42;;
58615;SDS011;44385;51.992;4.206;2024-02-23T11:33:38;4.80;;;1.30;;
58615;SDS011;44385;51.992;4.206;2024-02-23T11:36:06;3.22;;;1.30;;
58615;SDS011;44385;51.992;4.206;2024-02-23T11:38:33;2.43;;;1.07;;
58615;SDS011;44385;51.992;4.206;2024-02-23T11:41:00;3.10;;;1.23;;
58615;SDS011;44385;51.992;4.206;2024-02-23T11:43:27;4.43;;;1.60;;
58615;SDS011;44385;51.992;4.206;2024-02-23T11:45:54;7.25;;;1.20;;
58615;SDS011;44385;51.992;4.206;2024-02-23T11:48:20;5.18;;;1.27;;
58615;SDS011;44385;51.992;4.206;2024-02-23T11:50:47;3.08;;;1.20;;
58615;SDS011;44385;51.992;4.206;2024-02-23T11:53:16;5.30;;;1.40;;
58615;SDS011;44385;51.992;4.206;2024-02-23T11:55:44;5.35;;;1.27;;
58615;SDS011;44385;51.992;4.206;2024-02-23T11:58:10;4.55;;;1.60;;
58615;SDS011;44385;51.992;4.206;2024-02-23T12:00:37;4.88;;;1.60;;
58615;SDS011;44385;51.992;4.206;2024-02-23T12:03:04;8.52;;;1.38;;
58615;SDS011;44385;51.992;4.206;2024-02-23T12:05:30;4.53;;;1.00;;
58615;SDS011;44385;51.992;4.206;2024-02-23T12:07:57;2.60;;;1.00;;
58615;SDS011;44385;51.992;4.206;2024-02-23T12:10:25;5.10;;;0.95;;
58615;SDS011;44385;51.992;4.206;2024-02-23T12:12:53;3.25;;;1.35;;
58615;SDS011;44385;51.992;4.206;2024-02-23T12:15:19;5.25;;;1.63;;
58615;SDS011;44385;51.992;4.206;2024-02-23T12:17:49;5.82;;;1.70;;
58615;SDS011;44385;51.992;4.206;2024-02-23T12:20:15;4.90;;;1.00;;
58615;SDS011;44385;51.992;4.206;2024-02-23T12:22:42;5.75;;;1.38;;
58615;SDS011;44385;51.992;4.206;2024-02-23T12:25:08;4.75;;;1.27;;
58615;SDS011;44385;51.992;4.206;2024-02-23T12:27:36;3.63;;;1.00;;
58615;SDS011;44385;51.992;4.206;2024-02-23T12:30:03;4.22;;;1.08;;
58615;SDS011;44385;51.992;4.206;2024-02-23T12:32:29;1.70;;;0.80;;
58615;SDS011;44385;51.992;4.206;2024-02-23T12:34:56;3.13;;;1.05;;
58615;SDS011;44385;51.992;4.206;2024-02-23T12:37:23;3.55;;;0.70;;
58615;SDS011;44385;51.992;4.206;2024-02-23T12:39:49;3.33;;;1.00;;
58615;SDS011;44385;51.992;4.206;2024-02-23T12:42:15;3.22;;;1.20;;
58615;SDS011;44385;51.992;4.206;2024-02-23T12:44:44;2.95;;;0.73;;
58615;SDS011;44385;51.992;4.206;2024-02-23T12:47:11;3.78;;;1.20;;
58615;SDS011;44385;51.992;4.206;2024-02-23T12:49:37;3.60;;;0.70;;
58615;SDS011;44385;51.992;4.206;2024-02-23T12:52:04;4.63;;;1.10;;
58615;SDS011;44385;51.992;4.206;2024-02-23T12:54:31;4.53;;;1.25;;
58615;SDS011;44385;51.992;4.206;2024-02-23T12:56:57;2.13;;;1.08;;
58615;SDS011;44385;51.992;4.206;2024-02-23T12:59:23;7.35;;;1.23;;
58615;SDS011;44385;51.992;4.206;2024-02-23T13:01:51;2.63;;;0.93;;
58615;SDS011;44385;51.992;4.206;2024-02-23T13:04:18;2.83;;;0.73;;
58615;SDS011;44385;51.992;4.206;2024-02-23T13:06:44;1.25;;;0.93;;
58615;SDS011;44385;51.992;4.206;2024-02-23T13:09:11;4.45;;;0.63;;
58615;SDS011;44385;51.992;4.206;2024-02-23T13:11:39;2.08;;;1.02;;
58615;SDS011;44385;51.992;4.206;2024-02-23T13:14:06;3.03;;;1.00;;
58615;SDS011;44385;51.992;4.206;2024-02-23T13:16:34;6.10;;;0.80;;
58615;SDS011;44385;51.992;4.206;2024-02-23T13:19:02;3.22;;;0.60;;
58615;SDS011;44385;51.992;4.206;2024-02-23T13:21:28;3.47;;;0.90;;
58615;SDS011;44385;51.992;4.206;2024-02-23T13:23:57;3.70;;;1.05;;
58615;SDS011;44385;51.992;4.206;2024-02-23T13:26:23;2.05;;;1.25;;
58615;SDS011;44385;51.992;4.206;2024-02-23T13:28:50;5.40;;;1.00;;
58615;SDS011;44385;51.992;4.206;2024-02-23T13:31:16;1.48;;;0.60;;
58615;SDS011;44385;51.992;4.206;2024-02-23T13:33:43;3.42;;;0.68;;
58615;SDS011;44385;51.992;4.206;2024-02-23T13:36:11;2.13;;;0.63;;
58615;SDS011;44385;51.992;4.206;2024-02-23T13:38:38;2.40;;;0.60;;
58615;SDS011;44385;51.992;4.206;2024-02-23T13:41:05;2.72;;;0.70;;
58615;SDS011;44385;51.992;4.206;2024-02-23T13:43:31;2.80;;;0.68;;
58615;SDS011;44385;51.992;4.206;2024-02-23T13:45:58;1.88;;;0.52;;
58615;SDS011;44385;51.992;4.206;2024-02-23T13:48:25;1.35;;;0.40;;
58615;SDS011;44385;51.992;4.206;2024-02-23T13:50:51;4.53;;;0.70;;
58615;SDS011;44385;51.992;4.206;2024-02-23T13:53:19;0.60;;;0.30;;
58615;SDS011;44385;51.992;4.206;2024-02-23T13:55:45;1.85;;;0.52;;
58615;SDS011;44385;51.992;4.206;2024-02-23T13:58:13;2.05;;;1.00;;
58615;SDS011;44385;51.992;4.206;2024-02-23T14:00:39;2.25;;;0.55;;
58615;SDS011;44385;51.992;4.206;2024-02-23T14:03:05;2.50;;;0.75;;
58615;SDS011;44385;51.992;4.206;2024-02-23T14:05:32;2.28;;;0.57;;
58615;SDS011;44385;51.992;4.206;2024-02-23T14:07:59;1.13;;;0.50;;
58615;SDS011;44385;51.992;4.206;2024-02-23T14:10:27;2.28;;;1.08;;
58615;SDS011;44385;51.992;4.206;2024-02-23T14:12:54;0.95;;;0.60;;
58615;SDS011;44385;51.992;4.206;2024-02-23T14:15:21;3.63;;;0.60;;
58615;SDS011;44385;51.992;4.206;2024-02-23T14:17:47;1.50;;;0.90;;
58615;SDS011;44385;51.992;4.206;2024-02-23T14:20:15;5.38;;;1.13;;
58615;SDS011;44385;51.992;4.206;2024-02-23T14:22:41;2.03;;;0.90;;
58615;SDS011;44385;51.992;4.206;2024-02-23T14:25:08;1.10;;;0.80;;
58615;SDS011;44385;51.992;4.206;2024-02-23T14:27:36;2.72;;;0.90;;
58615;SDS011;44385;51.992;4.206;2024-02-23T14:30:03;1.02;;;0.70;;
58615;SDS011;44385;51.992;4.206;2024-02-23T14:32:29;1.83;;;0.95;;
58615;SDS011;44385;51.992;4.206;2024-02-23T14:34:56;0.88;;;0.82;;
58615;SDS011;44385;51.992;4.206;2024-02-23T14:37:23;1.65;;;0.80;;
58615;SDS011;44385;51.992;4.206;2024-02-23T14:39:49;3.08;;;1.30;;
58615;SDS011;44385;51.992;4.206;2024-02-23T14:42:16;2.47;;;1.23;;
58615;SDS011;44385;51.992;4.206;2024-02-23T14:44:44;1.05;;;0.90;;
58615;SDS011;44385;51.992;4.206;2024-02-23T14:47:11;3.28;;;1.30;;